sensor_id;sensor_type;location;lat;lon;timestamp;pressure;altitude;pressure_sealevel;temperature;humidity
58991;BME280;44781;53.444;14.476;2023-12-04T00:01:58;102115.38;;;-0.90;72.99
58991;BME280;44781;53.444;14.476;2023-12-04T00:04:25;102122.51;;;-0.91;72.88
58991;BME280;44781;53.444;14.476;2023-12-04T00:06:52;102120.97;;;-0.96;72.97
58991;BME280;44781;53.444;14.476;2023-12-04T00:09:19;102122.38;;;-0.98;73.07
58991;BME280;44781;53.444;14.476;2023-12-04T00:11:46;102123.25;;;-1.00;72.99
58991;BME280;44781;53.444;14.476;2023-12-04T00:14:13;102119.11;;;-1.05;72.78
58991;BME280;44781;53.444;14.476;2023-12-04T00:16:40;102118.29;;;-1.11;72.63
58991;BME280;44781;53.444;14.476;2023-12-04T00:19:08;102117.45;;;-1.15;72.82
58991;BME280;44781;53.444;14.476;2023-12-04T00:21:35;102114.31;;;-1.15;72.94
58991;BME280;44781;53.444;14.476;2023-12-04T00:24:04;102113.45;;;-1.15;72.93
58991;BME280;44781;53.444;14.476;2023-12-04T00:26:31;102114.30;;;-1.13;72.99
58991;BME280;44781;53.444;14.476;2023-12-04T00:28:57;102119.49;;;-1.11;72.95
58991;BME280;44781;53.444;14.476;2023-12-04T00:31:24;102121.05;;;-1.09;73.06
58991;BME280;44781;53.444;14.476;2023-12-04T00:33:52;102124.17;;;-1.10;73.04
58991;BME280;44781;53.444;14.476;2023-12-04T00:36:21;102124.88;;;-1.11;73.01
58991;BME280;44781;53.444;14.476;2023-12-04T00:38:48;102123.68;;;-1.15;73.14
58991;BME280;44781;53.444;14.476;2023-12-04T00:41:17;102124.40;;;-1.17;73.08
58991;BME280;44781;53.444;14.476;2023-12-04T00:43:44;102121.80;;;-1.20;73.09
58991;BME280;44781;53.444;14.476;2023-12-04T00:46:11;102127.52;;;-1.22;72.99
58991;BME280;44781;53.444;14.476;2023-12-04T00:48:38;102124.60;;;-1.26;73.33
58991;BME280;44781;53.444;14.476;2023-12-04T00:51:06;102125.30;;;-1.27;73.17
58991;BME280;44781;53.444;14.476;2023-12-04T00:53:34;102128.59;;;-1.25;73.21
58991;BME280;44781;53.444;14.476;2023-12-04T00:56:01;102129.79;;;-1.23;73.11
58991;BME280;44781;53.444;14.476;2023-12-04T00:58:31;102130.30;;;-1.20;73.34
58991;BME280;44781;53.444;14.476;2023-12-04T01:01:25;102134.98;;;-1.18;73.32
58991;BME280;44781;53.444;14.476;2023-12-04T01:03:53;102128.55;;;-1.18;73.33
58991;BME280;44781;53.444;14.476;2023-12-04T01:06:21;102130.11;;;-1.17;73.38
58991;BME280;44781;53.444;14.476;2023-12-04T01:08:49;102133.05;;;-1.16;73.36
58991;BME280;44781;53.444;14.476;2023-12-04T01:11:17;102133.59;;;-1.17;73.26
58991;BME280;44781;53.444;14.476;2023-12-04T01:13:46;102136.89;;;-1.18;73.25
58991;BME280;44781;53.444;14.476;2023-12-04T01:16:13;102137.60;;;-1.22;73.14
58991;BME280;44781;53.444;14.476;2023-12-04T01:18:41;102136.93;;;-1.26;73.12
58991;BME280;44781;53.444;14.476;2023-12-04T01:21:09;102138.33;;;-1.29;73.20
58991;BME280;44781;53.444;14.476;2023-12-04T01:23:36;102140.08;;;-1.32;73.18
58991;BME280;44781;53.444;14.476;2023-12-04T01:26:04;102137.30;;;-1.34;73.26
58991;BME280;44781;53.444;14.476;2023-12-04T01:28:31;102134.52;;;-1.34;73.37
58991;BME280;44781;53.444;14.476;2023-12-04T01:30:58;102132.26;;;-1.33;73.40
58991;BME280;44781;53.444;14.476;2023-12-04T01:33:25;102130.71;;;-1.33;73.48
58991;BME280;44781;53.444;14.476;2023-12-04T01:35:52;102127.59;;;-1.32;73.61
58991;BME280;44781;53.444;14.476;2023-12-04T01:38:19;102131.58;;;-1.33;73.57
58991;BME280;44781;53.444;14.476;2023-12-04T01:40:46;102130.18;;;-1.33;73.45
58991;BME280;44781;53.444;14.476;2023-12-04T01:43:13;102128.61;;;-1.32;73.66
58991;BME280;44781;53.444;14.476;2023-12-04T01:45:41;102136.25;;;-1.31;73.73
58991;BME280;44781;53.444;14.476;2023-12-04T01:48:08;102139.55;;;-1.33;73.54
58991;BME280;44781;53.444;14.476;2023-12-04T01:50:36;102133.67;;;-1.36;73.69
58991;BME280;44781;53.444;14.476;2023-12-04T01:53:07;102129.70;;;-1.39;73.40
58991;BME280;44781;53.444;14.476;2023-12-04T01:55:36;102131.45;;;-1.44;73.35
58991;BME280;44781;53.444;14.476;2023-12-04T01:58:04;102132.01;;;-1.51;73.50
58991;BME280;44781;53.444;14.476;2023-12-04T02:00:32;102135.98;;;-1.52;73.65
58991;BME280;44781;53.444;14.476;2023-12-04T02:02:59;102130.80;;;-1.52;73.74
58991;BME280;44781;53.444;14.476;2023-12-04T02:05:27;102126.98;;;-1.51;73.84
58991;BME280;44781;53.444;14.476;2023-12-04T02:07:57;102127.15;;;-1.51;73.87
58991;BME280;44781;53.444;14.476;2023-12-04T02:10:24;102121.42;;;-1.49;73.96
58991;BME280;44781;53.444;14.476;2023-12-04T02:12:52;102121.57;;;-1.46;74.00
58991;BME280;44781;53.444;14.476;2023-12-04T02:15:19;102121.05;;;-1.44;74.12
58991;BME280;44781;53.444;14.476;2023-12-04T02:17:47;102116.90;;;-1.44;74.12
58991;BME280;44781;53.444;14.476;2023-12-04T02:20:14;102112.55;;;-1.43;74.16
58991;BME280;44781;53.444;14.476;2023-12-04T02:22:41;102111.33;;;-1.43;74.21
58991;BME280;44781;53.444;14.476;2023-12-04T02:25:09;102109.61;;;-1.43;74.05
58991;BME280;44781;53.444;14.476;2023-12-04T02:27:50;102105.11;;;-1.45;73.93
58991;BME280;44781;53.444;14.476;2023-12-04T02:30:21;102102.35;;;-1.48;73.86
58991;BME280;44781;53.444;14.476;2023-12-04T02:32:49;102096.98;;;-1.49;73.96
58991;BME280;44781;53.444;14.476;2023-12-04T02:35:24;102093.16;;;-1.47;74.15
58991;BME280;44781;53.444;14.476;2023-12-04T02:37:53;102092.11;;;-1.45;74.29
58991;BME280;44781;53.444;14.476;2023-12-04T02:40:20;102091.39;;;-1.42;74.34
58991;BME280;44781;53.444;14.476;2023-12-04T02:42:47;102093.63;;;-1.38;74.45
58991;BME280;44781;53.444;14.476;2023-12-04T02:45:14;102093.27;;;-1.36;74.36
58991;BME280;44781;53.444;14.476;2023-12-04T02:47:41;102092.58;;;-1.34;74.42
58991;BME280;44781;53.444;14.476;2023-12-04T02:50:08;102089.96;;;-1.33;74.25
58991;BME280;44781;53.444;14.476;2023-12-04T02:52:35;102092.05;;;-1.33;74.32
58991;BME280;44781;53.444;14.476;2023-12-04T02:55:02;102092.58;;;-1.35;74.27
58991;BME280;44781;53.444;14.476;2023-12-04T02:57:29;102097.43;;;-1.34;74.18
58991;BME280;44781;53.444;14.476;2023-12-04T02:59:56;102089.61;;;-1.33;74.14
58991;BME280;44781;53.444;14.476;2023-12-04T03:02:23;102089.61;;;-1.32;74.36
58991;BME280;44781;53.444;14.476;2023-12-04T03:04:50;102094.45;;;-1.28;74.45
58991;BME280;44781;53.444;14.476;2023-12-04T03:07:17;102097.20;;;-1.24;74.44
58991;BME280;44781;53.444;14.476;2023-12-04T03:09:46;102099.42;;;-1.20;74.39
58991;BME280;44781;53.444;14.476;2023-12-04T03:12:14;102102.71;;;-1.17;74.48
58991;BME280;44781;53.444;14.476;2023-12-04T03:14:41;102101.30;;;-1.15;74.42
58991;BME280;44781;53.444;14.476;2023-12-04T03:17:08;102100.27;;;-1.14;74.26
58991;BME280;44781;53.444;14.476;2023-12-04T03:19:34;102099.56;;;-1.13;74.16
58991;BME280;44781;53.444;14.476;2023-12-04T03:22:02;102097.99;;;-1.13;74.24
58991;BME280;44781;53.444;14.476;2023-12-04T03:24:29;102089.17;;;-1.14;74.09
58991;BME280;44781;53.444;14.476;2023-12-04T03:26:56;102083.46;;;-1.16;74.05
58991;BME280;44781;53.444;14.476;2023-12-04T03:29:23;102083.29;;;-1.16;74.15
58991;BME280;44781;53.444;14.476;2023-12-04T03:31:50;102077.73;;;-1.15;73.91
58991;BME280;44781;53.444;14.476;2023-12-04T03:34:17;102071.46;;;-1.12;74.09
58991;BME280;44781;53.444;14.476;2023-12-04T03:36:44;102067.98;;;-1.09;74.00
58991;BME280;44781;53.444;14.476;2023-12-04T03:39:11;102063.95;;;-1.06;73.89
58991;BME280;44781;53.444;14.476;2023-12-04T03:41:38;102059.61;;;-1.04;73.91
58991;BME280;44781;53.444;14.476;2023-12-04T03:44:05;102060.48;;;-1.04;73.91
58991;BME280;44781;53.444;14.476;2023-12-04T03:46:32;102062.21;;;-1.04;73.88
58991;BME280;44781;53.444;14.476;2023-12-04T03:48:59;102067.42;;;-1.04;73.90
58991;BME280;44781;53.444;14.476;2023-12-04T03:51:26;102067.08;;;-1.05;73.85
58991;BME280;44781;53.444;14.476;2023-12-04T03:53:53;102062.23;;;-1.07;73.88
58991;BME280;44781;53.444;14.476;2023-12-04T03:56:20;102063.12;;;-1.09;73.87
58991;BME280;44781;53.444;14.476;2023-12-04T03:58:47;102061.20;;;-1.09;73.95
58991;BME280;44781;53.444;14.476;2023-12-04T04:01:14;102060.51;;;-1.07;73.92
58991;BME280;44781;53.444;14.476;2023-12-04T04:03:41;102058.76;;;-1.04;74.00
58991;BME280;44781;53.444;14.476;2023-12-04T04:06:09;102060.80;;;-1.01;73.98
58991;BME280;44781;53.444;14.476;2023-12-04T04:08:36;102056.44;;;-0.98;74.10
58991;BME280;44781;53.444;14.476;2023-12-04T04:11:04;102047.23;;;-0.96;74.18
58991;BME280;44781;53.444;14.476;2023-12-04T04:13:31;102044.10;;;-0.94;74.09
58991;BME280;44781;53.444;14.476;2023-12-04T04:15:58;102035.95;;;-0.95;73.99
58991;BME280;44781;53.444;14.476;2023-12-04T04:18:24;102035.08;;;-0.95;74.03
58991;BME280;44781;53.444;14.476;2023-12-04T04:20:51;102031.27;;;-0.96;74.03
58991;BME280;44781;53.444;14.476;2023-12-04T04:23:18;102034.08;;;-0.98;73.99
58991;BME280;44781;53.444;14.476;2023-12-04T04:25:47;102036.34;;;-0.99;73.91
58991;BME280;44781;53.444;14.476;2023-12-04T04:28:14;102032.16;;;-0.97;73.76
58991;BME280;44781;53.444;14.476;2023-12-04T04:30:40;102029.88;;;-0.96;73.78
58991;BME280;44781;53.444;14.476;2023-12-04T04:33:08;102032.98;;;-0.93;74.10
58991;BME280;44781;53.444;14.476;2023-12-04T04:35:35;102031.59;;;-0.91;74.06
58991;BME280;44781;53.444;14.476;2023-12-04T04:38:02;102031.75;;;-0.89;74.02
58991;BME280;44781;53.444;14.476;2023-12-04T04:40:31;102033.65;;;-0.89;73.90
58991;BME280;44781;53.444;14.476;2023-12-04T04:42:58;102035.03;;;-0.88;73.99
58991;BME280;44781;53.444;14.476;2023-12-04T04:45:27;102041.29;;;-0.89;73.89
58991;BME280;44781;53.444;14.476;2023-12-04T04:47:54;102042.32;;;-0.89;73.98
58991;BME280;44781;53.444;14.476;2023-12-04T04:50:21;102046.66;;;-0.91;73.95
58991;BME280;44781;53.444;14.476;2023-12-04T04:52:48;102044.77;;;-0.90;74.02
58991;BME280;44781;53.444;14.476;2023-12-04T04:55:15;102043.86;;;-0.87;73.80
58991;BME280;44781;53.444;14.476;2023-12-04T04:57:42;102046.77;;;-0.83;73.85
58991;BME280;44781;53.444;14.476;2023-12-04T05:00:09;102043.98;;;-0.78;73.90
58991;BME280;44781;53.444;14.476;2023-12-04T05:02:36;102043.42;;;-0.74;73.94
58991;BME280;44781;53.444;14.476;2023-12-04T05:05:03;102043.05;;;-0.72;73.87
58991;BME280;44781;53.444;14.476;2023-12-04T05:07:31;102038.01;;;-0.71;73.72
58991;BME280;44781;53.444;14.476;2023-12-04T05:09:58;102042.86;;;-0.70;73.78
58991;BME280;44781;53.444;14.476;2023-12-04T05:12:25;102047.89;;;-0.69;73.77
58991;BME280;44781;53.444;14.476;2023-12-04T05:14:52;102044.43;;;-0.70;73.64
58991;BME280;44781;53.444;14.476;2023-12-04T05:17:19;102040.27;;;-0.72;73.68
58991;BME280;44781;53.444;14.476;2023-12-04T05:19:46;102040.29;;;-0.73;73.84
58991;BME280;44781;53.444;14.476;2023-12-04T05:22:13;102039.95;;;-0.75;73.59
58991;BME280;44781;53.444;14.476;2023-12-04T05:24:40;102040.30;;;-0.75;73.53
58991;BME280;44781;53.444;14.476;2023-12-04T05:27:07;102040.11;;;-0.73;73.59
58991;BME280;44781;53.444;14.476;2023-12-04T05:29:34;102035.57;;;-0.70;73.72
58991;BME280;44781;53.444;14.476;2023-12-04T05:32:01;102031.02;;;-0.66;73.53
58991;BME280;44781;53.444;14.476;2023-12-04T05:34:28;102031.34;;;-0.63;73.48
58991;BME280;44781;53.444;14.476;2023-12-04T05:36:56;102031.31;;;-0.61;73.59
58991;BME280;44781;53.444;14.476;2023-12-04T05:39:23;102028.17;;;-0.58;73.47
58991;BME280;44781;53.444;14.476;2023-12-04T05:41:50;102029.55;;;-0.57;73.46
58991;BME280;44781;53.444;14.476;2023-12-04T05:44:17;102026.79;;;-0.58;73.27
58991;BME280;44781;53.444;14.476;2023-12-04T05:46:44;102018.29;;;-0.59;73.33
58991;BME280;44781;53.444;14.476;2023-12-04T05:49:11;102016.75;;;-0.63;73.08
58991;BME280;44781;53.444;14.476;2023-12-04T05:51:38;102015.74;;;-0.66;73.05
58991;BME280;44781;53.444;14.476;2023-12-04T05:54:06;102014.91;;;-0.69;72.95
58991;BME280;44781;53.444;14.476;2023-12-04T05:56:33;102010.78;;;-0.73;72.85
58991;BME280;44781;53.444;14.476;2023-12-04T05:59:02;102015.31;;;-0.75;72.92
58991;BME280;44781;53.444;14.476;2023-12-04T06:01:29;102012.71;;;-0.77;72.60
58991;BME280;44781;53.444;14.476;2023-12-04T06:03:56;102010.98;;;-0.77;72.67
58991;BME280;44781;53.444;14.476;2023-12-04T06:06:23;102015.66;;;-0.76;72.62
58991;BME280;44781;53.444;14.476;2023-12-04T06:08:50;102009.59;;;-0.75;72.60
58991;BME280;44781;53.444;14.476;2023-12-04T06:11:17;102003.69;;;-0.75;72.59
58991;BME280;44781;53.444;14.476;2023-12-04T06:13:44;101998.33;;;-0.77;72.54
58991;BME280;44781;53.444;14.476;2023-12-04T06:16:11;102000.61;;;-0.81;72.51
58991;BME280;44781;53.444;14.476;2023-12-04T06:18:38;102001.16;;;-0.84;72.47
58991;BME280;44781;53.444;14.476;2023-12-04T06:21:05;102001.20;;;-0.90;72.38
58991;BME280;44781;53.444;14.476;2023-12-04T06:23:33;102001.95;;;-0.95;72.08
58991;BME280;44781;53.444;14.476;2023-12-04T06:26:00;102001.65;;;-1.00;71.98
58991;BME280;44781;53.444;14.476;2023-12-04T06:28:27;102003.96;;;-1.07;71.83
58991;BME280;44781;53.444;14.476;2023-12-04T06:30:54;102000.20;;;-1.15;71.78
58991;BME280;44781;53.444;14.476;2023-12-04T06:33:22;102001.80;;;-1.21;71.61
58991;BME280;44781;53.444;14.476;2023-12-04T06:35:49;102000.30;;;-1.27;71.56
58991;BME280;44781;53.444;14.476;2023-12-04T06:38:18;102004.81;;;-1.30;71.53
58991;BME280;44781;53.444;14.476;2023-12-04T06:40:46;102008.98;;;-1.32;71.51
58991;BME280;44781;53.444;14.476;2023-12-04T06:43:13;102008.48;;;-1.34;71.64
58991;BME280;44781;53.444;14.476;2023-12-04T06:45:43;102008.67;;;-1.36;71.55
58991;BME280;44781;53.444;14.476;2023-12-04T06:48:13;102010.59;;;-1.38;71.78
58991;BME280;44781;53.444;14.476;2023-12-04T06:50:40;102010.61;;;-1.41;71.75
58991;BME280;44781;53.444;14.476;2023-12-04T06:53:07;102008.73;;;-1.45;71.55
58991;BME280;44781;53.444;14.476;2023-12-04T06:55:34;102008.77;;;-1.51;71.52
58991;BME280;44781;53.444;14.476;2023-12-04T06:58:01;102013.48;;;-1.55;71.40
58991;BME280;44781;53.444;14.476;2023-12-04T07:00:28;102017.30;;;-1.61;71.41
58991;BME280;44781;53.444;14.476;2023-12-04T07:02:56;102017.86;;;-1.66;71.60
58991;BME280;44781;53.444;14.476;2023-12-04T07:05:23;102015.80;;;-1.71;71.94
58991;BME280;44781;53.444;14.476;2023-12-04T07:07:50;102010.62;;;-1.73;72.01
58991;BME280;44781;53.444;14.476;2023-12-04T07:10:17;102010.45;;;-1.74;72.18
58991;BME280;44781;53.444;14.476;2023-12-04T07:12:45;102009.23;;;-1.73;72.47
58991;BME280;44781;53.444;14.476;2023-12-04T07:15:12;102007.13;;;-1.70;72.51
58991;BME280;44781;53.444;14.476;2023-12-04T07:17:39;102005.04;;;-1.67;72.46
58991;BME280;44781;53.444;14.476;2023-12-04T07:20:09;102008.33;;;-1.65;72.63
58991;BME280;44781;53.444;14.476;2023-12-04T07:22:38;102010.92;;;-1.65;72.73
58991;BME280;44781;53.444;14.476;2023-12-04T07:25:06;102014.55;;;-1.64;72.61
58991;BME280;44781;53.444;14.476;2023-12-04T07:27:34;102015.08;;;-1.66;72.62
58991;BME280;44781;53.444;14.476;2023-12-04T07:30:01;102014.39;;;-1.67;72.74
58991;BME280;44781;53.444;14.476;2023-12-04T07:32:29;102017.70;;;-1.69;72.72
58991;BME280;44781;53.444;14.476;2023-12-04T07:35:18;102016.31;;;-1.72;72.64
58991;BME280;44781;53.444;14.476;2023-12-04T07:37:45;102016.68;;;-1.72;72.71
58991;BME280;44781;53.444;14.476;2023-12-04T07:40:12;102016.68;;;-1.71;72.75
58991;BME280;44781;53.444;14.476;2023-12-04T07:42:41;102017.88;;;-1.68;72.85
58991;BME280;44781;53.444;14.476;2023-12-04T07:45:13;102017.86;;;-1.65;72.96
58991;BME280;44781;53.444;14.476;2023-12-04T07:47:42;102018.86;;;-1.62;72.93
58991;BME280;44781;53.444;14.476;2023-12-04T07:50:12;102012.44;;;-1.60;72.86
58991;BME280;44781;53.444;14.476;2023-12-04T07:52:39;102015.39;;;-1.60;72.76
58991;BME280;44781;53.444;14.476;2023-12-04T07:55:09;102016.77;;;-1.60;72.69
58991;BME280;44781;53.444;14.476;2023-12-04T07:57:36;102016.10;;;-1.61;72.43
58991;BME280;44781;53.444;14.476;2023-12-04T08:00:03;102016.46;;;-1.64;72.55
58991;BME280;44781;53.444;14.476;2023-12-04T08:02:31;102015.95;;;-1.66;72.54
58991;BME280;44781;53.444;14.476;2023-12-04T08:04:58;102015.27;;;-1.69;72.40
58991;BME280;44781;53.444;14.476;2023-12-04T08:07:25;102014.42;;;-1.72;72.36
58991;BME280;44781;53.444;14.476;2023-12-04T08:09:52;102006.33;;;-1.82;72.35
58991;BME280;44781;53.444;14.476;2023-12-04T08:12:20;102005.11;;;-1.85;72.38
58991;BME280;44781;53.444;14.476;2023-12-04T08:14:48;102021.90;;;-1.79;72.39
58991;BME280;44781;53.444;14.476;2023-12-04T08:17:15;102024.34;;;-1.78;72.14
58991;BME280;44781;53.444;14.476;2023-12-04T08:19:42;102022.93;;;-1.75;72.32
58991;BME280;44781;53.444;14.476;2023-12-04T08:22:09;102023.27;;;-1.73;72.50
58991;BME280;44781;53.444;14.476;2023-12-04T08:24:36;102023.24;;;-1.70;72.26
58991;BME280;44781;53.444;14.476;2023-12-04T08:27:03;102016.33;;;-1.69;72.29
58991;BME280;44781;53.444;14.476;2023-12-04T08:29:30;102019.42;;;-1.68;72.04
58991;BME280;44781;53.444;14.476;2023-12-04T08:31:57;102022.20;;;-1.69;72.04
58991;BME280;44781;53.444;14.476;2023-12-04T08:34:24;102019.63;;;-1.71;72.06
58991;BME280;44781;53.444;14.476;2023-12-04T08:36:51;102015.64;;;-1.73;71.85
58991;BME280;44781;53.444;14.476;2023-12-04T08:39:18;102020.86;;;-1.76;71.81
58991;BME280;44781;53.444;14.476;2023-12-04T08:41:46;102018.97;;;-1.80;71.69
58991;BME280;44781;53.444;14.476;2023-12-04T08:44:14;102014.46;;;-1.82;71.88
58991;BME280;44781;53.444;14.476;2023-12-04T08:46:42;102013.95;;;-1.81;71.85
58991;BME280;44781;53.444;14.476;2023-12-04T08:49:10;102011.35;;;-1.80;71.89
58991;BME280;44781;53.444;14.476;2023-12-04T08:51:37;102012.20;;;-1.77;71.77
58991;BME280;44781;53.444;14.476;2023-12-04T08:54:04;102008.20;;;-1.75;71.69
58991;BME280;44781;53.444;14.476;2023-12-04T08:56:31;102005.94;;;-1.72;71.75
58991;BME280;44781;53.444;14.476;2023-12-04T08:58:59;102005.92;;;-1.71;71.84
58991;BME280;44781;53.444;14.476;2023-12-04T09:01:30;102008.34;;;-1.70;71.64
58991;BME280;44781;53.444;14.476;2023-12-04T09:03:57;102010.06;;;-1.68;72.02
58991;BME280;44781;53.444;14.476;2023-12-04T09:06:24;102006.61;;;-1.67;71.98
58991;BME280;44781;53.444;14.476;2023-12-04T09:08:52;102007.47;;;-1.67;71.87
58991;BME280;44781;53.444;14.476;2023-12-04T09:11:19;102006.09;;;-1.69;71.87
58991;BME280;44781;53.444;14.476;2023-12-04T09:13:47;102003.68;;;-1.72;71.74
58991;BME280;44781;53.444;14.476;2023-12-04T09:16:13;102007.67;;;-1.73;71.80
58991;BME280;44781;53.444;14.476;2023-12-04T09:18:41;102010.97;;;-1.74;72.05
58991;BME280;44781;53.444;14.476;2023-12-04T09:21:08;102004.91;;;-1.74;72.09
58991;BME280;44781;53.444;14.476;2023-12-04T09:23:36;102003.34;;;-1.70;72.13
58991;BME280;44781;53.444;14.476;2023-12-04T09:26:03;102000.18;;;-1.65;72.36
58991;BME280;44781;53.444;14.476;2023-12-04T09:28:30;101996.51;;;-1.58;72.58
58991;BME280;44781;53.444;14.476;2023-12-04T09:30:57;101995.77;;;-1.51;72.65
58991;BME280;44781;53.444;14.476;2023-12-04T09:33:24;101991.21;;;-1.44;72.85
58991;BME280;44781;53.444;14.476;2023-12-04T09:35:51;101988.05;;;-1.37;73.12
58991;BME280;44781;53.444;14.476;2023-12-04T09:38:18;101985.75;;;-1.32;73.32
58991;BME280;44781;53.444;14.476;2023-12-04T09:40:45;101981.56;;;-1.27;73.32
58991;BME280;44781;53.444;14.476;2023-12-04T09:43:12;101981.55;;;-1.24;73.08
58991;BME280;44781;53.444;14.476;2023-12-04T09:45:40;101980.30;;;-1.21;73.33
58991;BME280;44781;53.444;14.476;2023-12-04T09:48:08;101980.25;;;-1.15;73.34
58991;BME280;44781;53.444;14.476;2023-12-04T09:50:36;101975.68;;;-1.08;73.47
58991;BME280;44781;53.444;14.476;2023-12-04T09:53:03;101972.31;;;-0.98;73.56
58991;BME280;44781;53.444;14.476;2023-12-04T09:55:31;101970.50;;;-0.89;73.78
58991;BME280;44781;53.444;14.476;2023-12-04T09:57:58;101962.94;;;-0.79;73.79
58991;BME280;44781;53.444;14.476;2023-12-04T10:00:25;101962.48;;;-0.70;73.67
58991;BME280;44781;53.444;14.476;2023-12-04T10:02:54;101958.95;;;-0.62;73.41
58991;BME280;44781;53.444;14.476;2023-12-04T10:05:22;101958.72;;;-0.56;73.32
58991;BME280;44781;53.444;14.476;2023-12-04T10:07:50;101955.89;;;-0.51;73.27
58991;BME280;44781;53.444;14.476;2023-12-04T10:10:17;101951.35;;;-0.49;73.03
58991;BME280;44781;53.444;14.476;2023-12-04T10:12:45;101953.59;;;-0.48;72.83
58991;BME280;44781;53.444;14.476;2023-12-04T10:15:12;101953.60;;;-0.47;72.82
58991;BME280;44781;53.444;14.476;2023-12-04T10:17:41;101950.64;;;-0.46;72.59
58991;BME280;44781;53.444;14.476;2023-12-04T10:20:11;101948.02;;;-0.46;72.45
58991;BME280;44781;53.444;14.476;2023-12-04T10:22:40;101942.80;;;-0.46;72.40
58991;BME280;44781;53.444;14.476;2023-12-04T10:25:18;101936.20;;;-0.44;72.29
58991;BME280;44781;53.444;14.476;2023-12-04T10:27:46;101927.65;;;-0.41;72.26
58991;BME280;44781;53.444;14.476;2023-12-04T10:30:28;101920.65;;;-0.36;72.10
58991;BME280;44781;53.444;14.476;2023-12-04T10:32:58;101912.06;;;-0.31;72.40
58991;BME280;44781;53.444;14.476;2023-12-04T10:35:29;101911.65;;;-0.24;72.43
58991;BME280;44781;53.444;14.476;2023-12-04T10:38:00;101906.35;;;-0.18;72.43
58991;BME280;44781;53.444;14.476;2023-12-04T10:40:35;101903.66;;;-0.11;72.47
58991;BME280;44781;53.444;14.476;2023-12-04T10:45:41;101899.54;;;-0.02;72.24
58991;BME280;44781;53.444;14.476;2023-12-04T10:48:10;101896.16;;;0.03;72.27
58991;BME280;44781;53.444;14.476;2023-12-04T10:50:39;101889.84;;;0.09;72.11
58991;BME280;44781;53.444;14.476;2023-12-04T10:53:11;101884.89;;;0.14;72.15
58991;BME280;44781;53.444;14.476;2023-12-04T10:55:40;101882.04;;;0.18;72.01
58991;BME280;44781;53.444;14.476;2023-12-04T10:58:12;101874.85;;;0.22;71.86
58991;BME280;44781;53.444;14.476;2023-12-04T11:00:44;101870.78;;;0.27;71.90
58991;BME280;44781;53.444;14.476;2023-12-04T11:03:20;101867.77;;;0.30;71.81
58991;BME280;44781;53.444;14.476;2023-12-04T11:05:55;101860.58;;;0.35;71.68
58991;BME280;44781;53.444;14.476;2023-12-04T11:08:23;101865.68;;;0.42;71.74
58991;BME280;44781;53.444;14.476;2023-12-04T11:10:58;101863.29;;;0.50;71.62
58991;BME280;44781;53.444;14.476;2023-12-04T11:13:37;101863.52;;;0.58;71.35
58991;BME280;44781;53.444;14.476;2023-12-04T11:19:36;101864.80;;;0.73;71.17
58991;BME280;44781;53.444;14.476;2023-12-04T11:22:07;101862.59;;;0.81;71.15
58991;BME280;44781;53.444;14.476;2023-12-04T11:24:36;101857.80;;;0.86;70.88
58991;BME280;44781;53.444;14.476;2023-12-04T11:27:04;101853.90;;;0.90;70.70
58991;BME280;44781;53.444;14.476;2023-12-04T11:29:32;101853.83;;;0.93;70.52
58991;BME280;44781;53.444;14.476;2023-12-04T11:32:00;101848.63;;;0.93;70.14
58991;BME280;44781;53.444;14.476;2023-12-04T11:34:27;101848.77;;;0.94;70.11
58991;BME280;44781;53.444;14.476;2023-12-04T11:36:54;101845.45;;;0.95;69.98
58991;BME280;44781;53.444;14.476;2023-12-04T11:39:25;101846.16;;;0.94;69.82
58991;BME280;44781;53.444;14.476;2023-12-04T11:41:55;101838.85;;;0.95;69.62
58991;BME280;44781;53.444;14.476;2023-12-04T11:44:22;101835.71;;;0.95;69.71
58991;BME280;44781;53.444;14.476;2023-12-04T11:47:02;101836.23;;;0.95;69.58
58991;BME280;44781;53.444;14.476;2023-12-04T11:49:30;101832.60;;;0.93;69.57
58991;BME280;44781;53.444;14.476;2023-12-04T11:51:58;101827.05;;;0.93;69.44
58991;BME280;44781;53.444;14.476;2023-12-04T11:54:27;101827.05;;;0.92;69.39
58991;BME280;44781;53.444;14.476;2023-12-04T11:57:19;101826.90;;;0.92;69.39
58991;BME280;44781;53.444;14.476;2023-12-04T11:59:48;101822.71;;;0.93;69.24
58991;BME280;44781;53.444;14.476;2023-12-04T12:02:16;101819.91;;;0.94;69.09
58991;BME280;44781;53.444;14.476;2023-12-04T12:04:44;101821.44;;;0.96;69.19
58991;BME280;44781;53.444;14.476;2023-12-04T12:07:14;101825.05;;;0.98;69.05
58991;BME280;44781;53.444;14.476;2023-12-04T12:09:41;101813.70;;;1.00;69.09
58991;BME280;44781;53.444;14.476;2023-12-04T12:12:08;101813.49;;;1.01;68.87
58991;BME280;44781;53.444;14.476;2023-12-04T12:14:36;101815.94;;;1.01;68.84
58991;BME280;44781;53.444;14.476;2023-12-04T12:17:03;101812.52;;;0.98;68.71
58991;BME280;44781;53.444;14.476;2023-12-04T12:19:30;101811.70;;;0.95;68.68
58991;BME280;44781;53.444;14.476;2023-12-04T12:21:57;101807.06;;;0.92;68.61
58991;BME280;44781;53.444;14.476;2023-12-04T12:24:24;101812.50;;;0.90;68.60
58991;BME280;44781;53.444;14.476;2023-12-04T12:26:54;101809.23;;;0.87;68.52
58991;BME280;44781;53.444;14.476;2023-12-04T12:29:22;101798.85;;;0.85;68.52
58991;BME280;44781;53.444;14.476;2023-12-04T12:31:50;101804.80;;;0.82;68.50
58991;BME280;44781;53.444;14.476;2023-12-04T12:34:18;101797.04;;;0.78;68.49
58991;BME280;44781;53.444;14.476;2023-12-04T12:36:45;101793.77;;;0.77;68.65
58991;BME280;44781;53.444;14.476;2023-12-04T12:39:12;101792.59;;;0.75;68.59
58991;BME280;44781;53.444;14.476;2023-12-04T12:41:39;101789.70;;;0.72;68.56
58991;BME280;44781;53.444;14.476;2023-12-04T12:44:06;101782.95;;;0.70;68.62
58991;BME280;44781;53.444;14.476;2023-12-04T12:46:33;101780.02;;;0.69;68.49
58991;BME280;44781;53.444;14.476;2023-12-04T12:49:00;101770.94;;;0.70;68.62
58991;BME280;44781;53.444;14.476;2023-12-04T12:51:28;101768.30;;;0.71;68.46